Time;durP1;ratioP1;P1;durP2;ratioP2;P2;SDS_P1;SDS_P2;PMS_P1;PMS_P2;Temp;Humidity;BMP_temperature;BMP_pressure;BME280_temperature;BME280_humidity;BME280_pressure;Samples;Min_cycle;Max_cycle;Signal;HPM_P1;HPM_P2
2022/03/29 00:00:00;;;;;;;40.10;17.38;;;;;;;8.64;69.86;97580.84;4889784;29;20028;-90
2022/03/29 00:02:26;;;;;;;32.22;17.23;;;;;;;8.74;69.84;97586.56;4893023;29;20504;-90
2022/03/29 00:04:51;;;;;;;34.00;17.02;;;;;;;8.76;70.11;97568.66;4910867;29;20028;-89
2022/03/29 00:07:17;;;;;;;33.28;16.63;;;;;;;8.80;70.09;97576.38;4908993;29;20035;-90
2022/03/29 00:09:43;;;;;;;38.83;18.40;;;;;;;8.85;69.60;97571.69;4907583;29;20043;-90
2022/03/29 00:12:09;;;;;;;36.90;17.58;;;;;;;8.87;69.37;97580.44;4898181;29;20032;-89
2022/03/29 00:14:34;;;;;;;33.70;16.70;;;;;;;8.94;69.76;97584.50;4903199;29;20023;-90
2022/03/29 00:17:00;;;;;;;38.35;17.95;;;;;;;8.90;69.58;97569.63;4902350;29;20084;-89
2022/03/29 00:19:26;;;;;;;36.75;16.35;;;;;;;8.73;70.26;97567.00;4891787;29;20023;-89
2022/03/29 00:21:51;;;;;;;36.45;16.38;;;;;;;8.78;70.49;97574.75;4909763;29;20133;-90
2022/03/29 00:24:17;;;;;;;33.85;16.73;;;;;;;8.68;70.78;97577.06;4922220;29;20067;-89
2022/03/29 00:26:43;;;;;;;37.45;17.42;;;;;;;8.59;71.67;97573.09;4908877;29;20039;-90
2022/03/29 00:29:08;;;;;;;39.28;16.38;;;;;;;8.57;71.44;97560.78;4896465;29;20127;-90
2022/03/29 00:31:34;;;;;;;38.58;16.23;;;;;;;8.49;72.53;97552.34;4902400;29;20087;-89
2022/03/29 00:34:00;;;;;;;32.17;16.42;;;;;;;8.63;72.49;97560.44;4898158;29;20022;-89
2022/03/29 00:36:27;;;;;;;33.00;15.68;;;;;;;8.60;72.17;97533.97;4921512;29;20110;-90
2022/03/29 00:38:54;;;;;;;36.92;15.48;;;;;;;8.73;72.54;97548.34;4909707;29;20032;-90
2022/03/29 00:41:20;;;;;;;30.27;15.25;;;;;;;8.68;72.22;97531.72;4907183;29;20028;-90
2022/03/29 00:43:46;;;;;;;32.22;15.38;;;;;;;8.78;72.18;97542.75;4902296;29;20559;-89
2022/03/29 00:46:11;;;;;;;33.38;14.35;;;;;;;8.79;72.43;97532.00;4910303;29;20038;-89
2022/03/29 00:48:38;;;;;;;26.13;14.20;;;;;;;8.93;71.64;97533.91;4906066;29;20047;-89
2022/03/29 00:51:04;;;;;;;31.83;14.45;;;;;;;9.04;71.70;97540.38;4924411;29;20039;-89
2022/03/29 00:53:31;;;;;;;35.25;14.43;;;;;;;9.16;71.72;97534.34;4907713;29;20047;-90
2022/03/29 00:55:59;;;;;;;28.58;14.48;;;;;;;9.03;71.16;97511.97;4915718;29;20086;-90
2022/03/29 00:58:25;;;;;;;29.55;14.02;;;;;;;8.98;71.04;97524.69;4925100;29;20094;-90
2022/03/29 01:00:52;;;;;;;45.17;13.80;;;;;;;9.02;70.80;97523.59;4928978;29;20040;-90
2022/03/29 01:03:18;;;;;;;28.90;13.80;;;;;;;8.94;71.11;97512.50;4906398;29;20484;-89
2022/03/29 01:05:44;;;;;;;30.30;13.52;;;;;;;9.03;71.11;97511.09;4890666;29;20120;-91
2022/03/29 01:08:10;;;;;;;23.83;13.00;;;;;;;9.09;70.76;97516.09;4896580;29;20035;-91
2022/03/29 01:10:36;;;;;;;30.05;13.20;;;;;;;9.04;71.15;97503.03;4925148;29;20036;-91
2022/03/29 01:13:02;;;;;;;26.50;13.40;;;;;;;9.13;71.56;97514.97;4892109;29;20069;-89
2022/03/29 01:15:30;;;;;;;25.02;12.88;;;;;;;8.99;71.60;97488.22;4892236;29;20028;-90
2022/03/29 01:17:56;;;;;;;29.55;12.98;;;;;;;8.98;71.67;97491.84;4892626;29;20032;-89
2022/03/29 01:20:49;;;;;;;26.00;13.68;;;;;;;9.08;71.81;97501.03;4905003;29;20047;-90
2022/03/29 01:26:51;;;;;;;23.25;13.02;;;;;;;9.00;72.11;97496.13;4934497;29;20043;-92
2022/03/29 01:29:16;;;;;;;27.35;13.40;;;;;;;8.94;72.58;97485.81;4904926;29;20046;-89
2022/03/29 01:31:42;;;;;;;34.20;13.27;;;;;;;8.85;72.79;97475.66;4913164;29;20407;-89
2022/03/29 01:34:08;;;;;;;25.42;13.00;;;;;;;8.86;73.38;97477.38;4908567;29;20058;-89
2022/03/29 01:36:33;;;;;;;26.77;12.85;;;;;;;8.72;73.27;97469.28;4892146;29;20137;-90
2022/03/29 01:38:59;;;;;;;28.80;13.32;;;;;;;8.55;73.50;97438.22;4904905;29;20072;-90
2022/03/29 01:41:26;;;;;;;24.83;12.55;;;;;;;8.71;73.65;97467.56;4900493;29;20028;-90
2022/03/29 01:43:52;;;;;;;23.77;13.13;;;;;;;8.59;73.95;97447.78;4888611;29;20587;-90
2022/03/29 01:46:18;;;;;;;21.73;13.07;;;;;;;8.74;73.12;97462.06;4919841;29;20032;-90
2022/03/29 01:48:44;;;;;;;28.48;13.60;;;;;;;8.58;74.04;97450.56;4920584;29;20526;-90
2022/03/29 01:51:12;;;;;;;19.80;12.40;;;;;;;8.63;74.00;97449.34;4888628;29;20484;-89
2022/03/29 01:53:38;;;;;;;26.05;12.45;;;;;;;8.68;74.16;97454.41;4890382;29;20035;-89
2022/03/29 01:56:04;;;;;;;24.20;12.88;;;;;;;8.55;74.64;97440.06;4924729;29;20067;-90
2022/03/29 01:58:30;;;;;;;31.25;13.18;;;;;;;8.56;74.49;97442.63;4909341;29;20035;-89
2022/03/29 02:00:56;;;;;;;34.25;13.70;;;;;;;8.49;74.99;97441.22;4910107;29;20023;-90
2022/03/29 02:03:22;;;;;;;32.88;13.75;;;;;;;8.47;75.40;97436.94;4926483;29;20579;-91
2022/03/29 02:05:48;;;;;;;27.58;14.32;;;;;;;8.49;75.06;97445.72;4910084;29;20070;-90
2022/03/29 02:08:14;;;;;;;29.83;13.23;;;;;;;8.41;75.77;97429.28;4916731;29;20132;-90
2022/03/29 02:10:40;;;;;;;31.60;12.88;;;;;;;8.23;75.97;97406.28;4892987;29;20072;-90
2022/03/29 02:13:09;;;;;;;27.98;13.25;;;;;;;8.26;75.57;97411.44;4892135;29;20431;-90
2022/03/29 02:15:36;;;;;;;24.85;12.30;;;;;;;8.26;76.19;97401.66;4893120;29;20032;-90
2022/03/29 02:18:02;;;;;;;24.17;12.98;;;;;;;8.37;76.10;97417.94;4896298;29;20038;-90
2022/03/29 02:20:28;;;;;;;27.65;12.77;;;;;;;8.12;76.38;97383.75;4907776;29;20036;-89
2022/03/29 02:22:54;;;;;;;27.42;12.25;;;;;;;8.07;77.11;97375.16;4908789;29;20107;-90
2022/03/29 02:25:21;;;;;;;28.98;11.95;;;;;;;8.14;76.93;97395.19;4923905;29;20047;-90
2022/03/29 02:27:46;;;;;;;19.80;10.80;;;;;;;8.16;76.64;97403.94;4908378;29;20016;-90
2022/03/29 02:30:14;;;;;;;25.58;11.73;;;;;;;8.28;77.06;97412.25;4924109;29;20051;-89
2022/03/29 02:32:41;;;;;;;27.98;12.40;;;;;;;8.18;76.99;97399.38;4908280;29;20016;-90
2022/03/29 02:35:07;;;;;;;32.10;13.40;;;;;;;8.03;77.71;97388.72;4908151;29;20044;-89
2022/03/29 02:37:33;;;;;;;29.23;12.48;;;;;;;8.11;77.66;97390.03;4907641;29;20047;-89
2022/03/29 02:39:59;;;;;;;25.80;12.93;;;;;;;8.17;77.47;97411.00;4908073;29;20008;-90
2022/03/29 02:42:25;;;;;;;26.23;13.68;;;;;;;8.15;77.46;97388.06;4906999;29;20016;-90
2022/03/29 02:44:50;;;;;;;42.10;13.55;;;;;;;8.01;77.76;97388.81;4899054;29;20044;-90
2022/03/29 02:47:16;;;;;;;33.30;14.57;;;;;;;8.04;78.02;97396.63;4890179;29;20040;-90
2022/03/29 02:49:42;;;;;;;30.38;13.77;;;;;;;7.91;78.79;97406.22;4889806;29;20037;-90
2022/03/29 02:52:07;;;;;;;34.65;13.02;;;;;;;7.88;78.63;97379.75;4908348;29;20051;-90
2022/03/29 02:54:35;;;;;;;39.63;13.55;;;;;;;7.87;78.54;97388.72;4906631;29;20032;-90
2022/03/29 02:57:00;;;;;;;34.65;13.80;;;;;;;7.86;78.53;97375.47;4888793;29;20039;-90
2022/03/29 02:59:26;;;;;;;30.02;12.73;;;;;;;7.93;78.29;97399.03;4888677;29;20096;-91
2022/03/29 03:01:52;;;;;;;29.85;13.07;;;;;;;8.09;77.30;97412.38;4890870;29;20035;-90
2022/03/29 03:04:17;;;;;;;36.35;13.57;;;;;;;8.13;75.53;97395.25;4895629;29;20024;-89
2022/03/29 03:06:44;;;;;;;35.97;15.82;;;;;;;8.10;75.32;97375.00;4905821;29;20043;-90
2022/03/29 03:09:09;;;;;;;30.77;17.42;;;;;;;8.12;76.04;97382.91;4890020;29;20032;-90
2022/03/29 03:11:36;;;;;;;39.78;19.73;;;;;;;8.01;75.73;97372.81;4888898;29;20062;-90
2022/03/29 03:14:02;;;;;;;32.97;15.52;;;;;;;8.18;75.91;97399.38;4886454;29;20099;-90
2022/03/29 03:16:27;;;;;;;36.40;19.40;;;;;;;8.09;75.14;97389.25;4888409;29;20044;-90
2022/03/29 03:18:53;;;;;;;38.65;17.20;;;;;;;8.14;74.84;97397.88;4903871;29;20100;-89
2022/03/29 03:21:19;;;;;;;37.50;16.20;;;;;;;7.99;75.01;97372.06;4888709;29;20044;-90
2022/03/29 03:23:44;;;;;;;37.97;14.68;;;;;;;7.91;75.06;97357.41;4897274;29;20035;-88
2022/03/29 03:26:10;;;;;;;39.13;16.98;;;;;;;8.23;75.46;97408.94;4901107;29;20028;-89
2022/03/29 03:28:35;;;;;;;56.38;19.13;;;;;;;8.12;75.40;97389.06;4916664;29;20099;-89
2022/03/29 03:31:01;;;;;;;53.65;19.23;;;;;;;8.23;76.17;97400.94;4916198;29;20035;-91
2022/03/29 03:33:27;;;;;;;41.72;15.95;;;;;;;8.24;75.21;97392.03;4890228;29;20035;-91
2022/03/29 03:35:53;;;;;;;36.70;19.45;;;;;;;8.17;74.61;97384.38;4907049;29;20112;-88
2022/03/29 03:38:18;;;;;;;41.30;20.20;;;;;;;8.26;73.44;97374.13;4896084;29;20138;-89
2022/03/29 03:40:44;;;;;;;28.85;14.50;;;;;;;8.27;72.85;97365.22;4895190;29;20031;-90
2022/03/29 03:43:10;;;;;;;29.35;13.38;;;;;;;8.47;72.02;97379.16;4895909;29;20032;-89
2022/03/29 03:45:35;;;;;;;30.65;13.50;;;;;;;8.40;72.11;97371.63;4897536;29;20030;-90
2022/03/29 03:48:06;;;;;;;38.05;16.30;;;;;;;8.41;72.83;97373.31;4911059;29;20028;-90
2022/03/29 03:50:50;;;;;;;33.00;14.35;;;;;;;8.44;72.83;97386.47;4917203;29;20094;-91
2022/03/29 03:53:15;;;;;;;39.70;16.52;;;;;;;8.31;74.03;97380.97;4897614;29;20459;-91
2022/03/29 03:55:42;;;;;;;40.17;17.98;;;;;;;8.27;73.77;97394.53;4887201;29;20020;-89
2022/03/29 03:58:13;;;;;;;49.58;22.38;;;;;;;8.05;74.14;97369.06;4907103;29;20032;-91
2022/03/29 04:00:39;;;;;;;50.47;26.25;;;;;;;8.15;74.57;97404.06;4886661;29;20582;-89
2022/03/29 04:03:05;;;;;;;65.57;29.42;;;;;;;8.04;74.31;97387.78;4886101;29;20123;-90
2022/03/29 04:05:31;;;;;;;65.53;25.63;;;;;;;8.01;74.47;97386.16;4911951;29;20040;-92
2022/03/29 04:07:57;;;;;;;41.65;19.50;;;;;;;8.03;74.13;97375.41;4918659;29;20031;-90
2022/03/29 04:10:22;;;;;;;43.00;22.05;;;;;;;8.00;75.29;97384.41;4903832;29;20039;-91
2022/03/29 04:12:48;;;;;;;46.63;18.58;;;;;;;8.05;74.94;97385.03;4908836;29;20032;-90
2022/03/29 04:15:14;;;;;;;39.58;18.10;;;;;;;8.19;74.55;97402.91;4889060;29;20419;-92
2022/03/29 04:17:39;;;;;;;33.97;16.85;;;;;;;8.16;73.69;97389.75;4918571;29;20038;-91
2022/03/29 04:20:06;;;;;;;31.40;16.55;;;;;;;8.26;74.05;97395.44;4897619;29;20023;-79
2022/03/29 04:22:48;;;;;;;53.42;26.70;;;;;;;8.36;72.89;97391.38;4908152;29;20056;-93
2022/03/29 04:25:13;;;;;;;52.38;24.35;;;;;;;8.44;72.16;97399.78;4914675;29;20043;-89
2022/03/29 04:27:39;;;;;;;72.80;28.83;;;;;;;8.37;70.68;97371.75;4902920;29;20015;-91
2022/03/29 04:30:05;;;;;;;64.15;28.08;;;;;;;8.57;70.72;97392.84;4915988;29;20111;-91
2022/03/29 04:32:31;;;;;;;37.47;18.67;;;;;;;8.67;68.90;97383.38;4891950;29;20443;-90
2022/03/29 04:34:56;;;;;;;47.10;20.58;;;;;;;8.80;68.91;97379.03;4902735;29;20028;-91
2022/03/29 04:37:24;;;;;;;50.53;24.23;;;;;;;8.87;68.64;97377.75;4894313;29;20035;-92
2022/03/29 04:39:50;;;;;;;53.83;24.80;;;;;;;9.03;67.66;97386.59;4895317;29;20020;-92
2022/03/29 04:42:18;;;;;;;42.03;19.88;;;;;;;9.13;66.59;97385.09;4896750;29;20091;-90
2022/03/29 04:44:44;;;;;;;46.95;23.15;;;;;;;9.11;66.10;97364.78;4888292;29;20028;-92
2022/03/29 04:47:10;;;;;;;52.22;22.60;;;;;;;9.38;65.28;97383.66;4905364;29;20444;-91
2022/03/29 04:49:36;;;;;;;46.63;21.17;;;;;;;9.33;65.62;97377.69;4895055;29;20035;-90
2022/03/29 04:52:02;;;;;;;53.10;23.17;;;;;;;9.40;65.45;97373.72;4895644;29;20036;-90
2022/03/29 04:54:28;;;;;;;63.10;24.95;;;;;;;9.42;65.46;97371.81;4921497;29;20094;-90
2022/03/29 04:56:54;;;;;;;78.95;29.27;;;;;;;9.66;64.89;97383.69;4900585;29;20028;-91
2022/03/29 04:59:20;;;;;;;64.35;26.85;;;;;;;9.85;64.23;97389.63;4895467;29;20035;-91
2022/03/29 05:01:46;;;;;;;64.78;25.23;;;;;;;9.89;64.15;97385.81;4894604;29;20035;-91
2022/03/29 05:04:11;;;;;;;60.22;24.80;;;;;;;10.04;63.21;97374.16;4892519;29;20083;-94
2022/03/29 05:06:37;;;;;;;58.53;23.20;;;;;;;10.13;62.36;97359.38;4911230;29;20032;-92
2022/03/29 05:09:03;;;;;;;77.13;24.70;;;;;;;10.20;62.48;97355.38;4906580;29;20024;-92
2022/03/29 05:11:29;;;;;;;57.17;21.30;;;;;;;10.66;61.15;97382.72;4915304;29;20436;-91
2022/03/29 05:13:55;;;;;;;86.97;29.77;;;;;;;10.90;62.73;97391.81;4916617;29;20511;-92
2022/03/29 05:16:21;;;;;;;74.85;24.50;;;;;;;10.89;61.56;97380.22;4888794;29;20032;-92
2022/03/29 05:18:49;;;;;;;66.97;24.58;;;;;;;11.11;61.24;97392.19;4904974;29;20118;-91
2022/03/29 05:21:14;;;;;;;77.35;24.33;;;;;;;11.18;60.13;97367.59;4905077;29;20063;-92
2022/03/29 05:23:40;;;;;;;58.28;23.02;;;;;;;11.44;59.18;97366.69;4894408;29;20024;-92
2022/03/29 05:26:06;;;;;;;33.45;15.93;;;;;;;11.60;56.93;97339.69;4918787;29;20615;-90
2022/03/29 05:28:31;;;;;;;44.30;18.45;;;;;;;11.97;55.98;97350.56;4918391;29;20111;-91
2022/03/29 05:30:57;;;;;;;48.05;18.95;;;;;;;12.61;54.24;97344.13;4911277;29;20059;-91
2022/03/29 05:33:22;;;;;;;65.03;27.55;;;;;;;13.34;51.91;97334.97;4903905;29;20034;-91
2022/03/29 05:35:48;;;;;;;54.65;24.38;;;;;;;14.34;49.43;97337.81;4907386;29;20027;-91
2022/03/29 05:38:14;;;;;;;56.55;26.63;;;;;;;15.06;47.81;97324.72;4901035;29;20031;-90
2022/03/29 05:40:59;;;;;;;65.13;24.65;;;;;;;16.09;45.08;97321.19;4911892;29;20083;-93
2022/03/29 05:43:25;;;;;;;51.55;25.08;;;;;;;17.04;42.25;97319.84;4897274;29;20044;-90
2022/03/29 05:48:53;;;;;;;68.88;27.95;;;;;;;18.92;39.26;97308.00;4927099;29;20039;-91
2022/03/29 05:51:23;;;;;;;65.75;28.02;;;;;;;19.52;37.78;97298.31;4903126;29;20518;-91
2022/03/29 05:53:49;;;;;;;39.30;18.55;;;;;;;19.63;36.22;97291.75;4898351;29;20344;-91
2022/03/29 05:56:15;;;;;;;51.85;27.55;;;;;;;20.73;35.28;97280.09;4914248;29;20094;-90
2022/03/29 05:58:42;;;;;;;55.60;17.02;;;;;;;20.97;34.26;97284.75;4902695;29;20039;-91
2022/03/29 06:01:07;;;;;;;38.53;15.13;;;;;;;21.42;33.42;97285.19;4901405;29;20070;-90
2022/03/29 06:03:33;;;;;;;53.50;16.70;;;;;;;22.09;33.06;97281.28;4918923;29;20031;-90
2022/03/29 06:05:58;;;;;;;36.75;13.85;;;;;;;22.71;30.69;97262.34;4917710;29;20087;-90
2022/03/29 06:08:24;;;;;;;29.88;11.50;;;;;;;23.37;29.30;97252.78;4909108;29;20098;-90
2022/03/29 06:10:50;;;;;;;23.05;12.82;;;;;;;23.95;28.47;97247.53;4918341;29;20023;-92
2022/03/29 06:13:15;;;;;;;48.00;16.08;;;;;;;24.64;28.49;97250.91;4919202;29;20028;-90
2022/03/29 06:15:41;;;;;;;33.45;11.05;;;;;;;25.38;26.76;97246.94;4902162;29;20040;-91
2022/03/29 06:18:07;;;;;;;64.25;23.20;;;;;;;25.98;26.91;97253.88;4887727;29;20032;-91
2022/03/29 06:20:32;;;;;;;29.23;10.25;;;;;;;25.33;26.35;97242.06;4924623;29;20026;-92
2022/03/29 06:22:58;;;;;;;15.40;7.90;;;;;;;24.78;25.90;97241.81;4907424;29;20106;-91
2022/03/29 06:25:24;;;;;;;24.20;9.18;;;;;;;24.26;27.11;97241.94;4905751;29;20036;-90
2022/03/29 06:27:50;;;;;;;13.77;7.38;;;;;;;23.51;27.57;97230.16;4894789;29;20039;-90
2022/03/29 06:30:16;;;;;;;14.75;6.82;;;;;;;23.51;27.53;97243.81;4886941;29;20028;-92
2022/03/29 06:32:52;;;;;;;20.63;7.03;;;;;;;22.96;28.28;97250.31;4894254;29;20095;-92
2022/03/29 06:35:25;;;;;;;15.63;6.82;;;;;;;22.75;28.64;97257.41;4906482;29;20046;-92
2022/03/29 06:37:52;;;;;;;15.93;7.05;;;;;;;23.12;28.00;97258.41;4901461;29;20060;-93
2022/03/29 06:40:20;;;;;;;18.80;8.80;;;;;;;23.07;28.31;97258.06;4900830;29;20456;-92
2022/03/29 06:42:46;;;;;;;20.80;6.82;;;;;;;22.95;28.31;97247.78;4893707;29;20107;-89
2022/03/29 06:45:12;;;;;;;14.90;7.45;;;;;;;23.75;27.29;97254.53;4885741;29;20059;-91
2022/03/29 06:47:38;;;;;;;17.73;6.93;;;;;;;23.22;27.65;97239.06;4887139;29;20095;-91
2022/03/29 06:50:04;;;;;;;26.90;8.50;;;;;;;23.28;28.11;97240.22;4900276;29;20095;-90
2022/03/29 06:52:41;;;;;;;15.68;6.60;;;;;;;24.15;26.87;97242.38;4886803;29;20032;-89
2022/03/29 06:55:08;;;;;;;13.60;7.15;;;;;;;23.83;27.35;97242.69;4890939;29;20160;-90
2022/03/29 06:57:34;;;;;;;14.25;8.15;;;;;;;23.47;27.72;97247.97;4887033;29;20508;-90
2022/03/29 07:00:00;;;;;;;16.77;7.38;;;;;;;24.34;27.18;97238.25;4886568;29;20028;-90
2022/03/29 07:07:16;;;;;;;15.47;8.00;;;;;;;25.56;25.73;97227.38;4897847;29;20040;-91
2022/03/29 07:12:26;;;;;;;34.42;8.85;;;;;;;26.19;24.66;97212.72;4916014;29;20093;-78
2022/03/29 07:14:52;;;;;;;22.80;9.23;;;;;;;26.35;24.19;97218.75;4905615;29;20063;-78
2022/03/29 07:17:19;;;;;;;17.23;7.70;;;;;;;26.10;24.77;97233.09;4881933;29;20555;-81
2022/03/29 07:19:46;;;;;;;16.77;7.05;;;;;;;26.49;26.21;97241.59;4907174;29;20027;-78
2022/03/29 07:22:11;;;;;;;12.73;6.88;;;;;;;27.69;27.66;97239.13;4916452;29;20054;-77
2022/03/29 07:24:38;;;;;;;14.80;7.35;;;;;;;28.40;24.94;97226.44;4916773;29;20028;-78
2022/03/29 07:27:04;;;;;;;15.27;8.38;;;;;;;29.27;25.32;97234.25;4902333;29;20038;-77
2022/03/29 07:29:29;;;;;;;22.50;7.50;;;;;;;30.36;25.45;97246.63;4900832;29;20039;-78
2022/03/29 07:31:55;;;;;;;16.98;7.45;;;;;;;30.78;21.94;97222.84;4897668;29;20051;-77
2022/03/29 07:34:21;;;;;;;11.35;7.80;;;;;;;30.61;23.96;97219.84;4888228;29;20126;-79
2022/03/29 07:36:48;;;;;;;18.92;7.28;;;;;;;30.59;24.47;97215.63;4900495;29;20032;-79
2022/03/29 07:39:14;;;;;;;11.75;6.97;;;;;;;31.36;24.83;97230.63;4916928;29;20063;-79
2022/03/29 07:41:40;;;;;;;14.57;6.40;;;;;;;31.93;24.45;97220.88;4900560;29;20062;-80
2022/03/29 07:44:06;;;;;;;20.48;7.00;;;;;;;30.74;25.47;97215.22;4892893;29;20072;-79
2022/03/29 07:46:32;;;;;;;16.23;6.47;;;;;;;30.06;23.29;97196.78;4909751;29;20476;-79
2022/03/29 07:48:57;;;;;;;19.08;7.15;;;;;;;30.80;24.19;97206.03;4884156;29;20492;-79
2022/03/29 07:51:23;;;;;;;15.85;6.32;;;;;;;31.00;22.27;97203.91;4903008;29;20032;-78
2022/03/29 07:53:48;;;;;;;34.58;6.60;;;;;;;31.35;22.14;97207.66;4897405;29;20023;-79
2022/03/29 07:56:14;;;;;;;22.77;6.80;;;;;;;30.43;23.21;97202.41;4881991;29;20042;-80
2022/03/29 07:58:40;;;;;;;14.18;6.47;;;;;;;31.74;21.34;97194.38;4913380;29;20160;-79
2022/03/29 08:01:06;;;;;;;16.88;7.05;;;;;;;32.39;20.06;97176.66;4901094;29;20115;-80
2022/03/29 08:03:33;;;;;;;25.15;6.95;;;;;;;32.66;20.90;97172.31;4907306;29;20444;-79
2022/03/29 08:06:01;;;;;;;18.13;7.70;;;;;;;32.94;19.77;97174.31;4901622;29;20035;-79
2022/03/29 08:08:27;;;;;;;17.80;6.03;;;;;;;33.24;19.89;97174.09;4885389;29;20088;-78
2022/03/29 08:10:54;;;;;;;11.63;5.88;;;;;;;33.31;20.44;97174.81;4908905;29;20038;-80
2022/03/29 08:13:20;;;;;;;16.20;6.85;;;;;;;33.11;19.32;97178.00;4897573;29;20028;-80
2022/03/29 08:15:49;;;;;;;18.23;6.20;;;;;;;33.32;19.89;97165.38;4937023;29;20059;-80
2022/03/29 08:18:16;;;;;;;16.77;6.93;;;;;;;33.32;18.71;97154.28;4903799;29;20118;-80
2022/03/29 08:20:42;;;;;;;13.60;5.60;;;;;;;33.51;18.11;97152.13;4913124;29;20400;-80
2022/03/29 08:23:09;;;;;;;18.30;5.85;;;;;;;32.64;18.86;97146.75;4895038;29;20531;-80
2022/03/29 08:25:36;;;;;;;14.85;6.35;;;;;;;32.83;18.47;97143.81;4885078;29;20040;-80
2022/03/29 08:28:03;;;;;;;21.58;5.72;;;;;;;31.81;19.66;97153.59;4885515;29;20503;-80
2022/03/29 08:30:30;;;;;;;15.50;5.82;;;;;;;31.60;19.23;97138.41;4884550;29;20063;-79
2022/03/29 08:32:57;;;;;;;26.95;5.93;;;;;;;32.50;19.06;97141.69;4906532;29;20522;-80
2022/03/29 08:35:22;;;;;;;20.55;5.47;;;;;;;32.32;19.04;97136.31;4895842;29;20054;-80
2022/03/29 08:37:48;;;;;;;17.83;5.80;;;;;;;32.59;18.40;97124.50;4893461;29;20063;-79
2022/03/29 08:40:16;;;;;;;19.63;5.32;;;;;;;32.52;18.46;97126.50;4902996;29;20075;-80
2022/03/29 08:42:43;;;;;;;25.50;6.68;;;;;;;32.44;18.64;97140.75;4926931;29;20540;-79
2022/03/29 08:45:14;;;;;;;14.38;6.15;;;;;;;31.84;19.17;97122.69;4892051;29;20032;-78
2022/03/29 08:47:41;;;;;;;20.50;5.60;;;;;;;32.18;18.75;97119.94;4900198;29;20067;-79
2022/03/29 08:50:08;;;;;;;14.50;6.07;;;;;;;32.84;18.05;97128.88;4894010;29;20036;-80
2022/03/29 08:52:34;;;;;;;21.73;5.60;;;;;;;32.94;18.02;97118.00;4919371;29;20111;-78
2022/03/29 08:55:03;;;;;;;24.50;5.65;;;;;;;32.82;17.81;97109.75;4915136;29;20139;-79
2022/03/29 08:57:32;;;;;;;16.23;5.38;;;;;;;33.01;17.88;97118.72;4915993;29;20087;-79
2022/03/29 08:59:58;;;;;;;17.15;6.18;;;;;;;32.51;17.99;97113.78;4884269;29;20484;-80
2022/03/29 09:02:25;;;;;;;11.45;4.97;;;;;;;32.15;17.92;97116.81;4901199;29;20503;-80
2022/03/29 09:05:16;;;;;;;17.85;5.63;;;;;;;31.93;18.72;97115.72;4903653;29;20066;-81
2022/03/29 09:07:57;;;;;;;17.85;5.80;;;;;;;32.36;18.39;97112.59;4888901;29;20028;-78
2022/03/29 09:10:41;;;;;;;20.00;5.78;;;;;;;33.44;17.61;97110.66;4898945;29;20816;-80
2022/03/29 09:13:36;;;;;;;17.63;5.68;;;;;;;32.76;17.43;97104.34;4918079;29;20025;-79
2022/03/29 09:16:03;;;;;;;17.85;5.15;;;;;;;32.99;17.59;97091.22;4886850;29;20044;-80
2022/03/29 09:18:29;;;;;;;14.80;5.20;;;;;;;34.15;16.62;97098.00;4914587;29;20036;-79
2022/03/29 09:21:09;;;;;;;19.88;5.88;;;;;;;34.63;16.27;97075.94;4884133;29;20079;-79
2022/03/29 09:23:35;;;;;;;16.75;5.70;;;;;;;35.49;15.58;97074.13;4883965;29;20039;-80
2022/03/29 09:26:01;;;;;;;14.43;5.70;;;;;;;35.74;15.46;97073.53;4907287;29;20036;-81
2022/03/29 09:28:33;;;;;;;21.02;5.20;;;;;;;35.83;15.83;97072.78;4902601;29;20035;-81
2022/03/29 09:30:59;;;;;;;12.40;5.28;;;;;;;35.38;15.62;97052.84;4902589;29;20038;-81
2022/03/29 09:33:32;;;;;;;17.02;5.07;;;;;;;35.19;15.90;97049.63;4917725;29;20031;-80
2022/03/29 09:36:07;;;;;;;19.83;5.55;;;;;;;35.36;15.82;97042.00;4883831;29;20059;-80
2022/03/29 09:38:40;;;;;;;23.20;5.90;;;;;;;35.32;15.60;97049.19;4884038;29;20032;-79
2022/03/29 09:41:22;;;;;;;19.58;5.28;;;;;;;35.49;15.42;97040.72;4899279;29;20123;-79
2022/03/29 09:44:05;;;;;;;18.05;5.22;;;;;;;35.77;15.44;97036.81;4902358;29;20444;-79
2022/03/29 09:46:31;;;;;;;20.42;5.85;;;;;;;35.73;15.30;97028.16;4889383;29;20071;-79
2022/03/29 09:49:01;;;;;;;17.73;5.45;;;;;;;36.06;15.14;97028.94;4887517;29;20040;-79
2022/03/29 09:51:27;;;;;;;20.45;5.55;;;;;;;35.66;14.66;97023.91;4885650;29;20028;-79
2022/03/29 09:53:56;;;;;;;20.33;5.65;;;;;;;35.75;14.88;97014.78;4883379;29;20039;-79
2022/03/29 09:56:30;;;;;;;18.02;5.05;;;;;;;36.53;13.82;97009.44;4901130;29;20042;-79
2022/03/29 09:59:16;;;;;;;26.08;5.07;;;;;;;36.07;14.39;97000.00;4902360;29;20047;-78
2022/03/29 10:01:49;;;;;;;15.05;5.35;;;;;;;36.51;14.34;96998.53;4900989;29;20032;-79
2022/03/29 10:04:16;;;;;;;17.60;5.78;;;;;;;36.71;14.36;97000.56;4909679;29;20052;-79
2022/03/29 10:06:43;;;;;;;19.10;5.90;;;;;;;35.88;15.24;96994.84;4912392;29;20107;-79
2022/03/29 10:09:27;;;;;;;10.95;5.00;;;;;;;35.71;14.94;96976.63;4883122;29;20080;-79
2022/03/29 10:12:04;;;;;;;20.05;6.10;;;;;;;35.50;15.52;96989.50;4901136;29;20024;-79
2022/03/29 10:14:31;;;;;;;13.00;4.82;;;;;;;36.24;15.22;96989.50;4901142;29;20352;-79
2022/03/29 10:16:58;;;;;;;19.45;5.80;;;;;;;36.42;14.66;96972.31;4917049;29;20502;-79
2022/03/29 10:19:24;;;;;;;13.77;5.25;;;;;;;35.40;15.42;96975.53;4900063;29;20064;-77
2022/03/29 10:21:53;;;;;;;21.83;5.50;;;;;;;35.28;15.94;96981.28;4900319;29;20044;-79
2022/03/29 10:24:19;;;;;;;14.38;5.97;;;;;;;34.31;15.96;96970.19;4917219;29;20031;-79
2022/03/29 10:26:48;;;;;;;16.50;5.47;;;;;;;33.57;16.49;96979.94;4901588;29;20118;-79
2022/03/29 10:29:14;;;;;;;16.42;5.43;;;;;;;33.50;16.33;96970.94;4899329;29;20031;-79
2022/03/29 10:31:55;;;;;;;14.70;6.00;;;;;;;34.10;16.60;96972.97;4893730;29;20032;-78
2022/03/29 10:34:30;;;;;;;19.70;5.32;;;;;;;34.29;16.01;96961.31;4892321;29;20030;-79
2022/03/29 10:37:07;;;;;;;16.23;5.20;;;;;;;35.04;14.97;96965.19;4884597;29;20036;-80
2022/03/29 10:39:57;;;;;;;14.60;4.93;;;;;;;34.98;15.11;96952.34;4899053;29;20020;-79
2022/03/29 10:42:44;;;;;;;22.15;5.97;;;;;;;35.59;14.98;96946.22;4904595;29;20063;-79
2022/03/29 10:45:40;;;;;;;17.13;5.35;;;;;;;35.95;14.51;96947.25;4911479;29;20024;-78
2022/03/29 10:48:09;;;;;;;16.60;5.78;;;;;;;36.20;14.47;96946.56;4897350;29;20047;-79
2022/03/29 10:50:53;;;;;;;12.02;5.38;;;;;;;36.28;14.65;96934.88;4907646;29;20028;-79
2022/03/29 10:53:34;;;;;;;37.47;5.70;;;;;;;36.14;14.48;96939.31;4899023;29;20515;-79
2022/03/29 10:56:15;;;;;;;16.67;5.50;;;;;;;34.12;14.94;96929.13;4898924;29;20465;-79
2022/03/29 10:59:06;;;;;;;12.80;4.80;;;;;;;33.53;16.00;96939.91;4922868;29;20407;-79
2022/03/29 11:01:33;;;;;;;24.87;6.10;;;;;;;32.66;16.43;96920.19;4907514;29;20036;-78
2022/03/29 11:04:23;;;;;;;13.82;4.88;;;;;;;33.49;15.48;96921.28;4900611;29;20516;-78
2022/03/29 11:07:07;;;;;;;15.07;5.30;;;;;;;32.02;16.70;96906.69;4926706;29;20083;-78
2022/03/29 11:09:34;;;;;;;12.95;4.97;;;;;;;30.65;17.27;96902.59;4916989;29;20039;-77
2022/03/29 11:12:01;;;;;;;17.52;5.25;;;;;;;30.67;17.26;96894.09;4887927;29;20381;-80
2022/03/29 11:14:33;;;;;;;14.73;5.50;;;;;;;31.47;17.26;96909.88;4891419;29;20032;-78
2022/03/29 11:17:17;;;;;;;17.20;5.43;;;;;;;31.66;16.87;96899.53;4905394;29;20418;-80
2022/03/29 11:19:48;;;;;;;33.42;6.32;;;;;;;32.53;16.11;96889.13;4908107;29;20031;-79
2022/03/29 11:22:25;;;;;;;15.50;5.93;;;;;;;31.92;16.13;96887.94;4927653;29;20106;-79
2022/03/29 11:25:15;;;;;;;20.48;5.43;;;;;;;31.60;16.46;96872.84;4918888;29;20122;-80
2022/03/29 11:27:41;;;;;;;20.58;5.07;;;;;;;33.71;15.35;96880.56;4914418;29;20102;-83
2022/03/29 11:30:11;;;;;;;17.20;5.13;;;;;;;33.56;15.54;96877.53;4892604;29;20079;-80
2022/03/29 11:32:45;;;;;;;12.02;4.97;;;;;;;34.18;15.42;96880.88;4901077;29;20566;-80
2022/03/29 11:35:18;;;;;;;14.75;5.22;;;;;;;34.47;15.49;96873.97;4914194;29;20397;-81
2022/03/29 11:37:45;;;;;;;15.13;4.68;;;;;;;35.28;14.61;96863.59;4906423;29;20032;-80
2022/03/29 11:40:14;;;;;;;14.02;4.82;;;;;;;35.26;14.33;96866.63;4904567;29;20115;-78
2022/03/29 11:43:11;;;;;;;22.15;5.57;;;;;;;34.36;14.91;96865.81;4908753;29;20040;-80